sensor_id;sensor_type;location;lat;lon;timestamp;temperature;humidity
54082;DHT22;39986;50.770;0.266;2022-08-01T00:01:50;19.90;99.90
54082;DHT22;39986;50.770;0.266;2022-08-01T00:04:16;20.00;99.90
54082;DHT22;39986;50.770;0.266;2022-08-01T00:06:42;20.00;99.90
54082;DHT22;39986;50.770;0.266;2022-08-01T00:09:07;20.00;99.90
54082;DHT22;39986;50.770;0.266;2022-08-01T00:11:33;19.90;99.90
54082;DHT22;39986;50.770;0.266;2022-08-01T00:13:58;19.80;99.90
54082;DHT22;39986;50.770;0.266;2022-08-01T00:16:24;19.80;99.90
54082;DHT22;39986;50.770;0.266;2022-08-01T00:18:51;19.70;99.90
54082;DHT22;39986;50.770;0.266;2022-08-01T00:21:17;19.70;99.90
54082;DHT22;39986;50.770;0.266;2022-08-01T00:23:43;19.60;99.90
54082;DHT22;39986;50.770;0.266;2022-08-01T00:26:11;19.60;99.90
54082;DHT22;39986;50.770;0.266;2022-08-01T00:28:37;19.60;99.90
54082;DHT22;39986;50.770;0.266;2022-08-01T00:31:03;19.60;99.90
54082;DHT22;39986;50.770;0.266;2022-08-01T00:33:29;19.50;99.90
54082;DHT22;39986;50.770;0.266;2022-08-01T00:35:54;19.50;99.90
54082;DHT22;39986;50.770;0.266;2022-08-01T00:38:21;19.40;99.90
54082;DHT22;39986;50.770;0.266;2022-08-01T00:40:47;19.30;99.90
54082;DHT22;39986;50.770;0.266;2022-08-01T00:43:12;19.30;99.90
54082;DHT22;39986;50.770;0.266;2022-08-01T00:45:38;19.30;99.90
54082;DHT22;39986;50.770;0.266;2022-08-01T00:48:04;19.20;99.90
54082;DHT22;39986;50.770;0.266;2022-08-01T00:50:31;19.30;99.90
54082;DHT22;39986;50.770;0.266;2022-08-01T00:52:58;19.20;99.90
54082;DHT22;39986;50.770;0.266;2022-08-01T00:55:25;19.30;99.90
54082;DHT22;39986;50.770;0.266;2022-08-01T00:57:53;19.30;99.90
54082;DHT22;39986;50.770;0.266;2022-08-01T01:00:19;19.30;99.90
54082;DHT22;39986;50.770;0.266;2022-08-01T01:02:45;19.30;99.90
54082;DHT22;39986;50.770;0.266;2022-08-01T01:05:12;19.30;99.90
54082;DHT22;39986;50.770;0.266;2022-08-01T01:10:54;19.30;99.90
54082;DHT22;39986;50.770;0.266;2022-08-01T01:13:41;19.30;99.90
54082;DHT22;39986;50.770;0.266;2022-08-01T01:16:15;19.30;99.90
54082;DHT22;39986;50.770;0.266;2022-08-01T01:18:46;19.30;99.90
54082;DHT22;39986;50.770;0.266;2022-08-01T01:29:34;19.20;99.90
54082;DHT22;39986;50.770;0.266;2022-08-01T01:32:09;19.20;99.90
54082;DHT22;39986;50.770;0.266;2022-08-01T01:34:40;19.20;99.90
54082;DHT22;39986;50.770;0.266;2022-08-01T01:37:11;19.20;99.90
54082;DHT22;39986;50.770;0.266;2022-08-01T01:39:39;19.20;99.90
54082;DHT22;39986;50.770;0.266;2022-08-01T01:42:05;19.20;99.90
54082;DHT22;39986;50.770;0.266;2022-08-01T01:44:31;19.10;99.90
54082;DHT22;39986;50.770;0.266;2022-08-01T01:46:59;19.10;99.90
54082;DHT22;39986;50.770;0.266;2022-08-01T01:49:27;19.20;99.90
54082;DHT22;39986;50.770;0.266;2022-08-01T01:51:56;19.20;99.90
54082;DHT22;39986;50.770;0.266;2022-08-01T01:54:23;19.20;99.90
54082;DHT22;39986;50.770;0.266;2022-08-01T01:56:50;19.20;99.90
54082;DHT22;39986;50.770;0.266;2022-08-01T01:59:44;19.30;99.90
54082;DHT22;39986;50.770;0.266;2022-08-01T02:02:10;19.40;99.90
54082;DHT22;39986;50.770;0.266;2022-08-01T02:04:40;19.40;99.90
54082;DHT22;39986;50.770;0.266;2022-08-01T02:07:09;19.40;99.90
54082;DHT22;39986;50.770;0.266;2022-08-01T02:09:35;19.40;99.90
54082;DHT22;39986;50.770;0.266;2022-08-01T02:12:06;19.40;99.90
54082;DHT22;39986;50.770;0.266;2022-08-01T02:14:33;19.40;99.90
54082;DHT22;39986;50.770;0.266;2022-08-01T02:17:01;19.50;99.90
54082;DHT22;39986;50.770;0.266;2022-08-01T02:19:29;19.50;99.90
54082;DHT22;39986;50.770;0.266;2022-08-01T02:22:04;19.50;99.90
54082;DHT22;39986;50.770;0.266;2022-08-01T02:27:10;19.50;99.90
54082;DHT22;39986;50.770;0.266;2022-08-01T02:30:00;19.50;99.90
54082;DHT22;39986;50.770;0.266;2022-08-01T02:32:31;19.50;99.90
54082;DHT22;39986;50.770;0.266;2022-08-01T02:35:00;19.50;99.90
54082;DHT22;39986;50.770;0.266;2022-08-01T02:37:27;19.50;99.90
54082;DHT22;39986;50.770;0.266;2022-08-01T02:39:54;19.50;99.90
54082;DHT22;39986;50.770;0.266;2022-08-01T02:42:23;19.50;99.90
54082;DHT22;39986;50.770;0.266;2022-08-01T02:44:52;19.50;99.90
54082;DHT22;39986;50.770;0.266;2022-08-01T02:47:20;19.50;99.90
54082;DHT22;39986;50.770;0.266;2022-08-01T02:49:50;19.50;99.90
54082;DHT22;39986;50.770;0.266;2022-08-01T02:52:20;19.40;99.90
54082;DHT22;39986;50.770;0.266;2022-08-01T02:54:49;19.40;99.90
54082;DHT22;39986;50.770;0.266;2022-08-01T02:57:16;19.50;99.90
54082;DHT22;39986;50.770;0.266;2022-08-01T02:59:44;19.50;99.90
54082;DHT22;39986;50.770;0.266;2022-08-01T03:02:11;19.50;99.90
54082;DHT22;39986;50.770;0.266;2022-08-01T03:04:40;19.50;99.90
54082;DHT22;39986;50.770;0.266;2022-08-01T03:07:09;19.50;99.90
54082;DHT22;39986;50.770;0.266;2022-08-01T03:09:41;19.50;99.90
54082;DHT22;39986;50.770;0.266;2022-08-01T03:12:11;19.50;99.90
54082;DHT22;39986;50.770;0.266;2022-08-01T03:14:40;19.50;99.90
54082;DHT22;39986;50.770;0.266;2022-08-01T03:17:07;19.40;99.90
54082;DHT22;39986;50.770;0.266;2022-08-01T03:19:34;19.40;99.90
54082;DHT22;39986;50.770;0.266;2022-08-01T03:22:02;19.40;99.90
54082;DHT22;39986;50.770;0.266;2022-08-01T03:24:32;19.40;99.90
54082;DHT22;39986;50.770;0.266;2022-08-01T03:26:58;19.30;99.90
54082;DHT22;39986;50.770;0.266;2022-08-01T03:29:27;19.30;99.90
54082;DHT22;39986;50.770;0.266;2022-08-01T03:31:53;19.30;99.90
54082;DHT22;39986;50.770;0.266;2022-08-01T03:34:19;19.40;99.90
54082;DHT22;39986;50.770;0.266;2022-08-01T03:36:58;19.40;99.90
54082;DHT22;39986;50.770;0.266;2022-08-01T03:39:29;19.30;99.90
54082;DHT22;39986;50.770;0.266;2022-08-01T03:41:59;19.30;99.90
54082;DHT22;39986;50.770;0.266;2022-08-01T03:44:27;19.20;99.90
54082;DHT22;39986;50.770;0.266;2022-08-01T03:47:16;19.20;99.90
54082;DHT22;39986;50.770;0.266;2022-08-01T03:49:44;19.20;99.90
54082;DHT22;39986;50.770;0.266;2022-08-01T03:52:11;19.20;99.90
54082;DHT22;39986;50.770;0.266;2022-08-01T03:54:41;19.20;99.90
54082;DHT22;39986;50.770;0.266;2022-08-01T03:57:09;19.20;99.90
54082;DHT22;39986;50.770;0.266;2022-08-01T03:59:37;19.20;99.90
54082;DHT22;39986;50.770;0.266;2022-08-01T04:02:04;19.20;99.90
54082;DHT22;39986;50.770;0.266;2022-08-01T04:04:31;19.20;99.90
54082;DHT22;39986;50.770;0.266;2022-08-01T04:06:57;19.20;99.90
54082;DHT22;39986;50.770;0.266;2022-08-01T04:09:30;19.20;99.90
54082;DHT22;39986;50.770;0.266;2022-08-01T04:11:58;19.10;99.90
54082;DHT22;39986;50.770;0.266;2022-08-01T04:14:24;19.10;99.90
54082;DHT22;39986;50.770;0.266;2022-08-01T04:16:50;19.10;99.90
54082;DHT22;39986;50.770;0.266;2022-08-01T04:19:15;19.10;99.90
54082;DHT22;39986;50.770;0.266;2022-08-01T04:21:41;19.10;99.90
54082;DHT22;39986;50.770;0.266;2022-08-01T04:24:12;19.10;99.90
54082;DHT22;39986;50.770;0.266;2022-08-01T04:26:41;19.00;99.90
54082;DHT22;39986;50.770;0.266;2022-08-01T04:29:09;19.00;99.90
54082;DHT22;39986;50.770;0.266;2022-08-01T04:31:37;19.00;99.90
54082;DHT22;39986;50.770;0.266;2022-08-01T04:34:05;19.00;99.90
54082;DHT22;39986;50.770;0.266;2022-08-01T04:36:34;18.90;99.90
54082;DHT22;39986;50.770;0.266;2022-08-01T04:39:02;18.90;99.90
54082;DHT22;39986;50.770;0.266;2022-08-01T04:41:30;18.80;99.90
54082;DHT22;39986;50.770;0.266;2022-08-01T04:43:57;18.80;99.90
54082;DHT22;39986;50.770;0.266;2022-08-01T04:46:24;18.90;99.90
54082;DHT22;39986;50.770;0.266;2022-08-01T04:48:51;18.90;99.90
54082;DHT22;39986;50.770;0.266;2022-08-01T04:51:17;18.90;99.90
54082;DHT22;39986;50.770;0.266;2022-08-01T04:53:47;19.00;99.90
54082;DHT22;39986;50.770;0.266;2022-08-01T04:56:13;19.00;99.90
54082;DHT22;39986;50.770;0.266;2022-08-01T04:58:41;19.00;99.90
54082;DHT22;39986;50.770;0.266;2022-08-01T05:01:12;19.00;99.90
54082;DHT22;39986;50.770;0.266;2022-08-01T05:03:37;19.10;99.90
54082;DHT22;39986;50.770;0.266;2022-08-01T05:06:03;19.10;99.90
54082;DHT22;39986;50.770;0.266;2022-08-01T05:08:29;19.20;99.90
54082;DHT22;39986;50.770;0.266;2022-08-01T05:10:55;19.20;99.90
54082;DHT22;39986;50.770;0.266;2022-08-01T05:13:21;19.20;99.90
54082;DHT22;39986;50.770;0.266;2022-08-01T05:15:46;19.10;99.90
54082;DHT22;39986;50.770;0.266;2022-08-01T05:18:12;19.00;99.90
54082;DHT22;39986;50.770;0.266;2022-08-01T05:20:37;19.10;99.90
54082;DHT22;39986;50.770;0.266;2022-08-01T05:23:04;19.10;99.90
54082;DHT22;39986;50.770;0.266;2022-08-01T05:25:30;19.10;99.90
54082;DHT22;39986;50.770;0.266;2022-08-01T05:27:56;19.10;99.90
54082;DHT22;39986;50.770;0.266;2022-08-01T05:30:21;19.10;99.90
54082;DHT22;39986;50.770;0.266;2022-08-01T05:32:47;19.20;99.90
54082;DHT22;39986;50.770;0.266;2022-08-01T05:35:13;19.10;99.90
54082;DHT22;39986;50.770;0.266;2022-08-01T05:37:38;19.10;99.90
54082;DHT22;39986;50.770;0.266;2022-08-01T05:40:05;19.00;99.90
54082;DHT22;39986;50.770;0.266;2022-08-01T05:42:30;19.00;99.90
54082;DHT22;39986;50.770;0.266;2022-08-01T05:44:56;19.00;99.90
54082;DHT22;39986;50.770;0.266;2022-08-01T05:47:22;18.90;99.90
54082;DHT22;39986;50.770;0.266;2022-08-01T05:49:47;19.00;99.90
54082;DHT22;39986;50.770;0.266;2022-08-01T05:52:13;18.90;99.90
54082;DHT22;39986;50.770;0.266;2022-08-01T05:54:39;18.90;99.90
54082;DHT22;39986;50.770;0.266;2022-08-01T05:57:07;19.00;99.90
54082;DHT22;39986;50.770;0.266;2022-08-01T05:59:32;19.00;99.90
54082;DHT22;39986;50.770;0.266;2022-08-01T06:02:23;19.00;99.90
54082;DHT22;39986;50.770;0.266;2022-08-01T06:04:49;19.10;99.90
54082;DHT22;39986;50.770;0.266;2022-08-01T06:07:14;19.10;99.90
54082;DHT22;39986;50.770;0.266;2022-08-01T06:09:40;19.00;99.90
54082;DHT22;39986;50.770;0.266;2022-08-01T06:12:06;19.20;99.90
54082;DHT22;39986;50.770;0.266;2022-08-01T06:14:31;19.30;99.90
54082;DHT22;39986;50.770;0.266;2022-08-01T06:16:57;19.30;99.90
54082;DHT22;39986;50.770;0.266;2022-08-01T06:19:23;19.40;99.90
54082;DHT22;39986;50.770;0.266;2022-08-01T06:21:49;19.50;99.90
54082;DHT22;39986;50.770;0.266;2022-08-01T06:24:14;19.60;99.90
54082;DHT22;39986;50.770;0.266;2022-08-01T06:26:40;19.70;99.90
54082;DHT22;39986;50.770;0.266;2022-08-01T06:29:06;19.70;99.90
54082;DHT22;39986;50.770;0.266;2022-08-01T06:31:32;19.70;99.90
54082;DHT22;39986;50.770;0.266;2022-08-01T06:33:57;19.70;99.90
54082;DHT22;39986;50.770;0.266;2022-08-01T06:36:23;19.90;99.90
54082;DHT22;39986;50.770;0.266;2022-08-01T06:38:49;20.00;99.90
54082;DHT22;39986;50.770;0.266;2022-08-01T06:41:14;20.20;99.90
54082;DHT22;39986;50.770;0.266;2022-08-01T06:43:40;20.20;99.90
54082;DHT22;39986;50.770;0.266;2022-08-01T06:46:05;20.20;99.90
54082;DHT22;39986;50.770;0.266;2022-08-01T06:48:31;20.00;99.90
54082;DHT22;39986;50.770;0.266;2022-08-01T06:50:57;20.00;99.90
54082;DHT22;39986;50.770;0.266;2022-08-01T06:53:38;20.00;99.90
54082;DHT22;39986;50.770;0.266;2022-08-01T06:56:04;20.00;99.90
54082;DHT22;39986;50.770;0.266;2022-08-01T06:58:55;19.90;99.90
54082;DHT22;39986;50.770;0.266;2022-08-01T07:01:27;19.90;99.90
54082;DHT22;39986;50.770;0.266;2022-08-01T07:03:53;19.90;99.90
54082;DHT22;39986;50.770;0.266;2022-08-01T07:06:19;19.90;99.90
54082;DHT22;39986;50.770;0.266;2022-08-01T07:08:45;19.80;99.90
54082;DHT22;39986;50.770;0.266;2022-08-01T07:11:10;19.80;99.90
54082;DHT22;39986;50.770;0.266;2022-08-01T07:13:36;19.80;99.90
54082;DHT22;39986;50.770;0.266;2022-08-01T07:16:02;19.90;99.90
54082;DHT22;39986;50.770;0.266;2022-08-01T07:18:27;19.90;99.90
54082;DHT22;39986;50.770;0.266;2022-08-01T07:20:53;19.90;99.90
54082;DHT22;39986;50.770;0.266;2022-08-01T07:23:19;19.90;99.90
54082;DHT22;39986;50.770;0.266;2022-08-01T07:25:44;19.90;99.90
54082;DHT22;39986;50.770;0.266;2022-08-01T07:28:10;20.10;99.90
54082;DHT22;39986;50.770;0.266;2022-08-01T07:30:36;20.00;99.90
54082;DHT22;39986;50.770;0.266;2022-08-01T07:33:02;20.10;99.90
54082;DHT22;39986;50.770;0.266;2022-08-01T07:35:28;20.10;99.90
54082;DHT22;39986;50.770;0.266;2022-08-01T07:37:53;20.10;99.90
54082;DHT22;39986;50.770;0.266;2022-08-01T07:40:24;20.00;99.90
54082;DHT22;39986;50.770;0.266;2022-08-01T07:42:49;20.00;99.90
54082;DHT22;39986;50.770;0.266;2022-08-01T07:45:15;20.00;99.90
54082;DHT22;39986;50.770;0.266;2022-08-01T07:47:41;20.10;99.90
54082;DHT22;39986;50.770;0.266;2022-08-01T07:50:07;20.10;99.90
54082;DHT22;39986;50.770;0.266;2022-08-01T07:52:33;20.20;99.90
54082;DHT22;39986;50.770;0.266;2022-08-01T07:54:59;20.20;99.90
54082;DHT22;39986;50.770;0.266;2022-08-01T07:57:25;20.20;99.90
54082;DHT22;39986;50.770;0.266;2022-08-01T07:59:51;20.30;99.90
54082;DHT22;39986;50.770;0.266;2022-08-01T08:02:17;20.50;99.90
54082;DHT22;39986;50.770;0.266;2022-08-01T08:04:42;20.50;99.90
54082;DHT22;39986;50.770;0.266;2022-08-01T08:07:08;20.40;99.90
54082;DHT22;39986;50.770;0.266;2022-08-01T08:09:34;20.30;99.90
54082;DHT22;39986;50.770;0.266;2022-08-01T08:12:01;20.20;99.90
54082;DHT22;39986;50.770;0.266;2022-08-01T08:14:26;20.00;99.90
54082;DHT22;39986;50.770;0.266;2022-08-01T08:16:52;19.90;99.90
54082;DHT22;39986;50.770;0.266;2022-08-01T08:19:18;19.90;99.90
54082;DHT22;39986;50.770;0.266;2022-08-01T08:21:44;20.00;99.90
54082;DHT22;39986;50.770;0.266;2022-08-01T08:24:10;20.10;99.90
54082;DHT22;39986;50.770;0.266;2022-08-01T08:26:54;20.10;99.90
54082;DHT22;39986;50.770;0.266;2022-08-01T08:29:20;20.10;99.90
54082;DHT22;39986;50.770;0.266;2022-08-01T08:31:47;20.20;99.90
54082;DHT22;39986;50.770;0.266;2022-08-01T08:34:13;20.30;99.90
54082;DHT22;39986;50.770;0.266;2022-08-01T08:36:39;20.20;99.90
54082;DHT22;39986;50.770;0.266;2022-08-01T08:39:05;20.20;99.90
54082;DHT22;39986;50.770;0.266;2022-08-01T08:41:31;20.10;99.90
54082;DHT22;39986;50.770;0.266;2022-08-01T08:43:57;20.00;99.90
54082;DHT22;39986;50.770;0.266;2022-08-01T08:46:26;19.80;99.90
54082;DHT22;39986;50.770;0.266;2022-08-01T08:48:53;19.70;99.90
54082;DHT22;39986;50.770;0.266;2022-08-01T08:51:19;19.50;99.90
54082;DHT22;39986;50.770;0.266;2022-08-01T08:53:46;19.60;99.90
54082;DHT22;39986;50.770;0.266;2022-08-01T08:56:13;19.70;99.90
54082;DHT22;39986;50.770;0.266;2022-08-01T08:59:05;19.80;99.90
54082;DHT22;39986;50.770;0.266;2022-08-01T09:01:32;19.90;99.90
54082;DHT22;39986;50.770;0.266;2022-08-01T09:03:59;20.10;99.90
54082;DHT22;39986;50.770;0.266;2022-08-01T14:30:21;22.10;99.90
54082;DHT22;39986;50.770;0.266;2022-08-01T14:32:48;22.00;99.90
54082;DHT22;39986;50.770;0.266;2022-08-01T14:35:14;22.20;99.90
54082;DHT22;39986;50.770;0.266;2022-08-01T14:37:39;22.40;99.90
54082;DHT22;39986;50.770;0.266;2022-08-01T14:40:06;22.90;99.90
54082;DHT22;39986;50.770;0.266;2022-08-01T14:42:35;23.30;99.90
54082;DHT22;39986;50.770;0.266;2022-08-01T14:45:01;24.10;99.90
54082;DHT22;39986;50.770;0.266;2022-08-01T14:47:26;24.80;99.90
54082;DHT22;39986;50.770;0.266;2022-08-01T14:49:52;25.10;99.90
54082;DHT22;39986;50.770;0.266;2022-08-01T14:52:18;25.10;99.90
54082;DHT22;39986;50.770;0.266;2022-08-01T14:54:44;25.50;99.90
54082;DHT22;39986;50.770;0.266;2022-08-01T14:57:10;27.40;99.90
54082;DHT22;39986;50.770;0.266;2022-08-01T14:59:36;28.90;99.90
54082;DHT22;39986;50.770;0.266;2022-08-01T15:02:02;29.20;99.90
54082;DHT22;39986;50.770;0.266;2022-08-01T15:04:53;29.00;99.90
54082;DHT22;39986;50.770;0.266;2022-08-01T15:07:43;29.40;99.90
54082;DHT22;39986;50.770;0.266;2022-08-01T15:10:34;28.40;99.90
54082;DHT22;39986;50.770;0.266;2022-08-01T15:13:26;27.40;99.90
54082;DHT22;39986;50.770;0.266;2022-08-01T15:16:16;26.60;99.90
54082;DHT22;39986;50.770;0.266;2022-08-01T15:19:08;26.30;99.90
54082;DHT22;39986;50.770;0.266;2022-08-01T15:21:59;25.90;99.90
54082;DHT22;39986;50.770;0.266;2022-08-01T15:24:51;25.30;99.90
54082;DHT22;39986;50.770;0.266;2022-08-01T15:27:42;25.00;99.90
